sensor_id;sensor_type;location;lat;lon;timestamp;pressure;altitude;pressure_sealevel;temperature;humidity
55604;BME280;41468;48.838;9.330;2022-07-29T00:01:55;98131.97;;;19.92;78.86
55604;BME280;41468;48.838;9.330;2022-07-29T00:04:25;98128.00;;;19.93;79.62
55604;BME280;41468;48.838;9.330;2022-07-29T00:06:55;98138.06;;;19.87;79.99
55604;BME280;41468;48.838;9.330;2022-07-29T00:09:25;98133.84;;;19.82;80.25
55604;BME280;41468;48.838;9.330;2022-07-29T00:12:00;98124.06;;;19.78;80.80
55604;BME280;41468;48.838;9.330;2022-07-29T00:14:30;98127.84;;;19.84;79.35
55604;BME280;41468;48.838;9.330;2022-07-29T00:16:59;98122.63;;;19.86;79.96
55604;BME280;41468;48.838;9.330;2022-07-29T00:19:29;98119.97;;;19.95;77.98
55604;BME280;41468;48.838;9.330;2022-07-29T00:22:01;98114.63;;;19.75;80.06
55604;BME280;41468;48.838;9.330;2022-07-29T00:24:30;98108.97;;;19.79;80.11
55604;BME280;41468;48.838;9.330;2022-07-29T00:27:03;98103.53;;;19.75;80.29
55604;BME280;41468;48.838;9.330;2022-07-29T00:29:33;98109.75;;;19.79;79.82
55604;BME280;41468;48.838;9.330;2022-07-29T00:32:03;98107.06;;;19.76;80.11
55604;BME280;41468;48.838;9.330;2022-07-29T00:34:33;98105.06;;;19.76;80.78
55604;BME280;41468;48.838;9.330;2022-07-29T00:37:15;98101.97;;;19.74;81.12
55604;BME280;41468;48.838;9.330;2022-07-29T00:39:45;98108.97;;;19.79;80.57
55604;BME280;41468;48.838;9.330;2022-07-29T00:42:17;98109.56;;;19.99;78.15
55604;BME280;41468;48.838;9.330;2022-07-29T00:44:47;98100.13;;;19.96;79.01
55604;BME280;41468;48.838;9.330;2022-07-29T00:47:17;98104.75;;;19.87;80.10
55604;BME280;41468;48.838;9.330;2022-07-29T00:49:47;98101.22;;;19.86;80.02
55604;BME280;41468;48.838;9.330;2022-07-29T00:52:17;98109.66;;;19.83;80.40
55604;BME280;41468;48.838;9.330;2022-07-29T00:54:46;98103.00;;;19.80;80.30
55604;BME280;41468;48.838;9.330;2022-07-29T00:57:19;98102.97;;;19.67;81.61
55604;BME280;41468;48.838;9.330;2022-07-29T00:59:49;98102.28;;;19.63;82.03
55604;BME280;41468;48.838;9.330;2022-07-29T01:02:19;98099.06;;;19.65;82.02
55604;BME280;41468;48.838;9.330;2022-07-29T01:04:49;98092.28;;;19.66;81.71
55604;BME280;41468;48.838;9.330;2022-07-29T01:07:19;98097.72;;;19.57;82.46
55604;BME280;41468;48.838;9.330;2022-07-29T01:09:49;98092.84;;;19.61;80.92
55604;BME280;41468;48.838;9.330;2022-07-29T01:12:25;98090.50;;;19.59;81.85
55604;BME280;41468;48.838;9.330;2022-07-29T01:14:55;98090.38;;;19.50;82.73
55604;BME280;41468;48.838;9.330;2022-07-29T01:17:27;98088.28;;;19.54;80.83
55604;BME280;41468;48.838;9.330;2022-07-29T01:20:07;98089.19;;;19.35;84.08
55604;BME280;41468;48.838;9.330;2022-07-29T01:22:53;98092.63;;;19.39;83.04
55604;BME280;41468;48.838;9.330;2022-07-29T01:25:42;98082.53;;;19.32;84.51
55604;BME280;41468;48.838;9.330;2022-07-29T01:28:51;98091.44;;;19.40;83.47
55604;BME280;41468;48.838;9.330;2022-07-29T01:31:28;98071.91;;;19.43;83.59
55604;BME280;41468;48.838;9.330;2022-07-29T01:34:07;98075.91;;;19.42;84.04
55604;BME280;41468;48.838;9.330;2022-07-29T01:36:43;98077.75;;;19.33;84.25
55604;BME280;41468;48.838;9.330;2022-07-29T01:39:18;98073.91;;;19.43;83.74
55604;BME280;41468;48.838;9.330;2022-07-29T01:41:51;98078.81;;;19.22;84.14
55604;BME280;41468;48.838;9.330;2022-07-29T01:44:31;98075.28;;;19.22;83.40
55604;BME280;41468;48.838;9.330;2022-07-29T01:47:07;98072.31;;;19.29;83.16
55604;BME280;41468;48.838;9.330;2022-07-29T01:49:43;98068.97;;;19.21;85.22
55604;BME280;41468;48.838;9.330;2022-07-29T01:52:21;98073.09;;;19.29;84.04
55604;BME280;41468;48.838;9.330;2022-07-29T01:54:55;98070.78;;;19.41;83.78
55604;BME280;41468;48.838;9.330;2022-07-29T01:57:29;98070.16;;;19.49;82.70
55604;BME280;41468;48.838;9.330;2022-07-29T02:00:04;98073.47;;;19.44;83.03
55604;BME280;41468;48.838;9.330;2022-07-29T02:02:35;98079.59;;;19.52;82.24
55604;BME280;41468;48.838;9.330;2022-07-29T02:05:09;98071.25;;;19.52;81.17
55604;BME280;41468;48.838;9.330;2022-07-29T02:07:40;98069.78;;;19.35;83.32
55604;BME280;41468;48.838;9.330;2022-07-29T02:10:12;98077.09;;;19.28;84.38
55604;BME280;41468;48.838;9.330;2022-07-29T02:12:44;98068.50;;;19.23;85.08
55604;BME280;41468;48.838;9.330;2022-07-29T02:15:19;98076.06;;;19.22;84.33
55604;BME280;41468;48.838;9.330;2022-07-29T02:17:53;98070.38;;;19.13;85.21
55604;BME280;41468;48.838;9.330;2022-07-29T02:20:25;98070.44;;;18.97;87.20
55604;BME280;41468;48.838;9.330;2022-07-29T02:22:57;98068.66;;;19.03;85.80
55604;BME280;41468;48.838;9.330;2022-07-29T02:25:28;98070.34;;;18.84;87.09
55604;BME280;41468;48.838;9.330;2022-07-29T02:28:05;98060.75;;;18.89;86.59
55604;BME280;41468;48.838;9.330;2022-07-29T02:30:40;98073.53;;;18.99;86.67
55604;BME280;41468;48.838;9.330;2022-07-29T02:33:14;98070.06;;;18.95;87.34
55604;BME280;41468;48.838;9.330;2022-07-29T02:35:46;98073.72;;;18.92;87.90
55604;BME280;41468;48.838;9.330;2022-07-29T02:38:18;98066.38;;;18.85;88.22
55604;BME280;41468;48.838;9.330;2022-07-29T02:41:01;98065.09;;;18.73;89.11
55604;BME280;41468;48.838;9.330;2022-07-29T02:43:33;98059.81;;;18.79;87.38
55604;BME280;41468;48.838;9.330;2022-07-29T02:46:13;98073.91;;;18.52;89.33
55604;BME280;41468;48.838;9.330;2022-07-29T02:48:58;98066.13;;;18.47;88.65
55604;BME280;41468;48.838;9.330;2022-07-29T02:51:33;98065.50;;;18.55;87.95
55604;BME280;41468;48.838;9.330;2022-07-29T02:54:14;98059.72;;;18.50;88.17
55604;BME280;41468;48.838;9.330;2022-07-29T02:56:47;98055.22;;;18.56;88.66
55604;BME280;41468;48.838;9.330;2022-07-29T02:59:23;98065.50;;;18.55;88.05
55604;BME280;41468;48.838;9.330;2022-07-29T03:01:58;98064.13;;;18.47;89.55
55604;BME280;41468;48.838;9.330;2022-07-29T03:04:30;98070.28;;;18.55;88.05
55604;BME280;41468;48.838;9.330;2022-07-29T03:07:02;98072.88;;;18.62;86.70
55604;BME280;41468;48.838;9.330;2022-07-29T03:09:33;98068.03;;;18.66;86.78
55604;BME280;41468;48.838;9.330;2022-07-29T03:12:04;98067.50;;;18.55;87.91
55604;BME280;41468;48.838;9.330;2022-07-29T03:14:35;98063.53;;;18.56;88.68
55604;BME280;41468;48.838;9.330;2022-07-29T03:17:09;98066.84;;;18.51;89.27
55604;BME280;41468;48.838;9.330;2022-07-29T03:19:39;98071.25;;;18.48;89.92
55604;BME280;41468;48.838;9.330;2022-07-29T03:22:09;98075.91;;;18.35;91.55
55604;BME280;41468;48.838;9.330;2022-07-29T03:24:39;98073.31;;;18.44;89.85
55604;BME280;41468;48.838;9.330;2022-07-29T03:27:08;98076.06;;;18.44;88.71
55604;BME280;41468;48.838;9.330;2022-07-29T03:29:38;98075.19;;;18.31;90.13
55604;BME280;41468;48.838;9.330;2022-07-29T03:32:18;98071.25;;;18.32;89.48
55604;BME280;41468;48.838;9.330;2022-07-29T03:34:49;98071.91;;;18.19;91.33
55604;BME280;41468;48.838;9.330;2022-07-29T03:37:19;98070.88;;;17.97;96.32
55604;BME280;41468;48.838;9.330;2022-07-29T03:39:49;98071.63;;;17.97;95.78
55604;BME280;41468;48.838;9.330;2022-07-29T03:42:22;98068.94;;;17.94;96.33
55604;BME280;41468;48.838;9.330;2022-07-29T03:45:03;98064.88;;;17.98;95.98
55604;BME280;41468;48.838;9.330;2022-07-29T03:47:39;98073.72;;;18.10;94.66
55604;BME280;41468;48.838;9.330;2022-07-29T03:50:17;98065.97;;;18.21;93.67
55604;BME280;41468;48.838;9.330;2022-07-29T03:52:49;98071.31;;;18.28;93.05
55604;BME280;41468;48.838;9.330;2022-07-29T03:55:19;98065.97;;;18.21;93.79
55604;BME280;41468;48.838;9.330;2022-07-29T03:57:49;98079.72;;;18.25;94.05
55604;BME280;41468;48.838;9.330;2022-07-29T04:00:20;98078.56;;;18.22;94.24
55604;BME280;41468;48.838;9.330;2022-07-29T04:02:52;98081.09;;;18.33;93.27
55604;BME280;41468;48.838;9.330;2022-07-29T04:05:22;98086.78;;;18.26;92.95
55604;BME280;41468;48.838;9.330;2022-07-29T04:07:52;98080.63;;;18.18;94.87
55604;BME280;41468;48.838;9.330;2022-07-29T04:10:23;98084.47;;;18.24;94.50
55604;BME280;41468;48.838;9.330;2022-07-29T04:12:57;98084.19;;;18.02;97.10
55604;BME280;41468;48.838;9.330;2022-07-29T04:15:27;98090.25;;;18.13;94.34
55604;BME280;41468;48.838;9.330;2022-07-29T04:18:00;98090.56;;;17.99;97.04
55604;BME280;41468;48.838;9.330;2022-07-29T04:20:30;98090.31;;;18.10;95.93
55604;BME280;41468;48.838;9.330;2022-07-29T04:22:59;98089.38;;;18.16;95.45
55604;BME280;41468;48.838;9.330;2022-07-29T04:25:29;98086.00;;;18.09;96.29
55604;BME280;41468;48.838;9.330;2022-07-29T04:27:59;98091.16;;;17.90;97.67
55604;BME280;41468;48.838;9.330;2022-07-29T04:30:32;98088.81;;;17.89;96.83
55604;BME280;41468;48.838;9.330;2022-07-29T04:33:06;98094.38;;;17.89;97.84
55604;BME280;41468;48.838;9.330;2022-07-29T04:35:37;98099.44;;;17.90;97.02
55604;BME280;41468;48.838;9.330;2022-07-29T04:38:16;98098.81;;;17.83;98.30
55604;BME280;41468;48.838;9.330;2022-07-29T04:40:45;98088.75;;;17.92;98.01
55604;BME280;41468;48.838;9.330;2022-07-29T04:43:15;98098.03;;;18.02;96.02
55604;BME280;41468;48.838;9.330;2022-07-29T04:45:49;98100.34;;;18.04;97.02
55604;BME280;41468;48.838;9.330;2022-07-29T04:48:21;98093.94;;;18.07;95.86
55604;BME280;41468;48.838;9.330;2022-07-29T04:50:54;98088.75;;;18.09;95.31
55604;BME280;41468;48.838;9.330;2022-07-29T04:53:24;98092.66;;;18.11;96.19
55604;BME280;41468;48.838;9.330;2022-07-29T04:55:54;98092.41;;;18.22;94.51
55604;BME280;41468;48.838;9.330;2022-07-29T04:58:24;98087.81;;;18.15;96.19
55604;BME280;41468;48.838;9.330;2022-07-29T05:00:54;98092.06;;;18.36;94.11
55604;BME280;41468;48.838;9.330;2022-07-29T05:03:26;98084.13;;;18.38;93.74
55604;BME280;41468;48.838;9.330;2022-07-29T05:05:56;98086.47;;;18.40;95.37
55604;BME280;41468;48.838;9.330;2022-07-29T05:08:26;98084.63;;;18.50;93.99
55604;BME280;41468;48.838;9.330;2022-07-29T05:10:56;98100.56;;;18.62;92.66
55604;BME280;41468;48.838;9.330;2022-07-29T05:13:38;98100.22;;;18.60;93.25
55604;BME280;41468;48.838;9.330;2022-07-29T05:16:12;98100.34;;;18.73;92.39
55604;BME280;41468;48.838;9.330;2022-07-29T05:18:45;98096.34;;;18.74;92.83
55604;BME280;41468;48.838;9.330;2022-07-29T05:21:14;98097.28;;;18.83;92.81
55604;BME280;41468;48.838;9.330;2022-07-29T05:23:44;98098.75;;;19.17;89.74
55604;BME280;41468;48.838;9.330;2022-07-29T05:26:14;98104.75;;;19.45;87.27
55604;BME280;41468;48.838;9.330;2022-07-29T05:28:44;98094.84;;;20.88;79.94
55604;BME280;41468;48.838;9.330;2022-07-29T05:31:14;98096.91;;;20.97;78.06
55604;BME280;41468;48.838;9.330;2022-07-29T05:33:46;98101.16;;;20.89;77.99
55604;BME280;41468;48.838;9.330;2022-07-29T05:36:16;98101.66;;;21.22;75.69
55604;BME280;41468;48.838;9.330;2022-07-29T05:38:46;98098.97;;;21.18;75.38
55604;BME280;41468;48.838;9.330;2022-07-29T05:41:17;98101.00;;;22.15;72.55
55604;BME280;41468;48.838;9.330;2022-07-29T05:43:47;98104.88;;;22.18;71.05
55604;BME280;41468;48.838;9.330;2022-07-29T05:46:17;98109.56;;;22.70;68.76
55604;BME280;41468;48.838;9.330;2022-07-29T05:48:49;98108.88;;;23.34;66.30
55604;BME280;41468;48.838;9.330;2022-07-29T05:51:19;98104.75;;;24.00;64.50
55604;BME280;41468;48.838;9.330;2022-07-29T05:53:49;98114.16;;;24.11;63.10
55604;BME280;41468;48.838;9.330;2022-07-29T05:56:19;98113.09;;;24.75;60.71
55604;BME280;41468;48.838;9.330;2022-07-29T05:58:50;98119.19;;;24.74;60.70
55604;BME280;41468;48.838;9.330;2022-07-29T06:01:20;98110.91;;;24.55;60.73
55604;BME280;41468;48.838;9.330;2022-07-29T06:03:52;98113.53;;;23.46;65.04
55604;BME280;41468;48.838;9.330;2022-07-29T06:06:22;98122.59;;;22.33;68.99
55604;BME280;41468;48.838;9.330;2022-07-29T06:08:52;98122.66;;;22.11;70.93
55604;BME280;41468;48.838;9.330;2022-07-29T06:11:21;98132.75;;;21.96;71.70
55604;BME280;41468;48.838;9.330;2022-07-29T06:13:51;98129.53;;;22.28;69.75
55604;BME280;41468;48.838;9.330;2022-07-29T06:16:21;98123.53;;;21.77;71.57
55604;BME280;41468;48.838;9.330;2022-07-29T06:18:58;98133.50;;;21.65;72.46
55604;BME280;41468;48.838;9.330;2022-07-29T06:21:28;98132.13;;;21.47;73.85
55604;BME280;41468;48.838;9.330;2022-07-29T06:23:58;98131.59;;;21.62;74.46
55604;BME280;41468;48.838;9.330;2022-07-29T06:26:27;98133.81;;;21.67;73.60
55604;BME280;41468;48.838;9.330;2022-07-29T06:29:03;98135.16;;;21.40;75.16
55604;BME280;41468;48.838;9.330;2022-07-29T06:31:33;98144.94;;;21.67;73.58
55604;BME280;41468;48.838;9.330;2022-07-29T06:34:06;98141.13;;;21.52;75.36
55604;BME280;41468;48.838;9.330;2022-07-29T06:36:37;98140.56;;;21.79;72.98
55604;BME280;41468;48.838;9.330;2022-07-29T06:39:07;98151.28;;;21.89;73.30
55604;BME280;41468;48.838;9.330;2022-07-29T06:41:37;98150.78;;;22.04;73.63
55604;BME280;41468;48.838;9.330;2022-07-29T06:44:07;98143.72;;;22.21;71.52
55604;BME280;41468;48.838;9.330;2022-07-29T06:46:37;98149.47;;;22.58;70.49
55604;BME280;41468;48.838;9.330;2022-07-29T06:49:10;98138.72;;;22.88;69.04
55604;BME280;41468;48.838;9.330;2022-07-29T06:51:40;98144.16;;;22.91;67.60
55604;BME280;41468;48.838;9.330;2022-07-29T06:54:10;98144.50;;;23.12;66.67
55604;BME280;41468;48.838;9.330;2022-07-29T06:56:40;98146.81;;;23.22;66.55
55604;BME280;41468;48.838;9.330;2022-07-29T06:59:11;98148.56;;;23.57;65.34
55604;BME280;41468;48.838;9.330;2022-07-29T07:01:42;98149.00;;;23.18;65.85
55604;BME280;41468;48.838;9.330;2022-07-29T07:04:15;98157.06;;;23.25;65.87
55604;BME280;41468;48.838;9.330;2022-07-29T07:06:45;98158.28;;;23.34;65.30
55604;BME280;41468;48.838;9.330;2022-07-29T07:09:15;98157.41;;;23.46;65.47
55604;BME280;41468;48.838;9.330;2022-07-29T07:11:45;98158.16;;;23.74;64.77
55604;BME280;41468;48.838;9.330;2022-07-29T07:14:15;98159.16;;;24.13;63.53
55604;BME280;41468;48.838;9.330;2022-07-29T07:16:46;98165.63;;;24.38;61.65
55604;BME280;41468;48.838;9.330;2022-07-29T07:19:20;98153.41;;;24.60;61.89
55604;BME280;41468;48.838;9.330;2022-07-29T07:21:51;98158.44;;;24.89;61.18
55604;BME280;41468;48.838;9.330;2022-07-29T07:24:21;98154.09;;;25.12;59.52
55604;BME280;41468;48.838;9.330;2022-07-29T07:26:52;98156.88;;;24.88;60.03
55604;BME280;41468;48.838;9.330;2022-07-29T07:29:21;98158.25;;;24.92;59.64
55604;BME280;41468;48.838;9.330;2022-07-29T07:31:51;98159.69;;;25.12;59.15
55604;BME280;41468;48.838;9.330;2022-07-29T07:34:29;98156.47;;;25.04;59.27
55604;BME280;41468;48.838;9.330;2022-07-29T07:36:59;98167.66;;;24.71;60.42
55604;BME280;41468;48.838;9.330;2022-07-29T07:39:29;98166.50;;;24.87;59.57
55604;BME280;41468;48.838;9.330;2022-07-29T07:41:59;98171.84;;;25.09;59.55
55604;BME280;41468;48.838;9.330;2022-07-29T07:44:28;98167.44;;;25.17;59.46
55604;BME280;41468;48.838;9.330;2022-07-29T07:47:12;98168.56;;;24.77;59.57
55604;BME280;41468;48.838;9.330;2022-07-29T07:49:46;98168.44;;;25.05;58.77
55604;BME280;41468;48.838;9.330;2022-07-29T07:52:17;98159.59;;;25.45;58.41
55604;BME280;41468;48.838;9.330;2022-07-29T07:54:48;98161.19;;;25.61;57.75
55604;BME280;41468;48.838;9.330;2022-07-29T07:57:18;98155.25;;;25.44;58.47
55604;BME280;41468;48.838;9.330;2022-07-29T07:59:47;98159.25;;;25.52;57.17
55604;BME280;41468;48.838;9.330;2022-07-29T08:02:17;98160.44;;;25.75;56.57
55604;BME280;41468;48.838;9.330;2022-07-29T08:04:50;98171.19;;;26.06;56.11
55604;BME280;41468;48.838;9.330;2022-07-29T08:07:20;98162.00;;;26.06;56.57
55604;BME280;41468;48.838;9.330;2022-07-29T08:09:49;98165.28;;;25.90;56.72
55604;BME280;41468;48.838;9.330;2022-07-29T08:12:19;98166.38;;;25.53;56.32
55604;BME280;41468;48.838;9.330;2022-07-29T08:14:49;98171.47;;;25.94;55.28
55604;BME280;41468;48.838;9.330;2022-07-29T08:17:19;98167.00;;;25.57;56.07
55604;BME280;41468;48.838;9.330;2022-07-29T08:19:51;98169.03;;;25.86;55.69
55604;BME280;41468;48.838;9.330;2022-07-29T08:22:21;98165.88;;;26.08;54.21
55604;BME280;41468;48.838;9.330;2022-07-29T08:24:51;98166.84;;;26.35;53.06
55604;BME280;41468;48.838;9.330;2022-07-29T08:27:24;98165.09;;;26.38;54.34
55604;BME280;41468;48.838;9.330;2022-07-29T08:30:11;98168.34;;;26.66;54.74
55604;BME280;41468;48.838;9.330;2022-07-29T08:32:41;98177.59;;;26.87;54.32
55604;BME280;41468;48.838;9.330;2022-07-29T08:35:23;98170.72;;;26.88;52.18
55604;BME280;41468;48.838;9.330;2022-07-29T08:38:00;98176.22;;;26.97;52.31
55604;BME280;41468;48.838;9.330;2022-07-29T08:40:30;98170.47;;;26.56;52.79
55604;BME280;41468;48.838;9.330;2022-07-29T08:43:04;98163.50;;;26.66;53.44
55604;BME280;41468;48.838;9.330;2022-07-29T08:45:42;98167.41;;;26.54;53.09
55604;BME280;41468;48.838;9.330;2022-07-29T08:48:15;98157.28;;;26.77;52.22
55604;BME280;41468;48.838;9.330;2022-07-29T08:50:51;98168.81;;;26.64;53.12
55604;BME280;41468;48.838;9.330;2022-07-29T08:53:24;98165.50;;;26.81;54.05
55604;BME280;41468;48.838;9.330;2022-07-29T08:55:55;98159.44;;;27.03;52.47
55604;BME280;41468;48.838;9.330;2022-07-29T08:58:25;98163.56;;;26.72;52.91
55604;BME280;41468;48.838;9.330;2022-07-29T09:00:57;98158.88;;;26.98;53.21
55604;BME280;41468;48.838;9.330;2022-07-29T09:03:30;98163.44;;;27.16;51.17
55604;BME280;41468;48.838;9.330;2022-07-29T09:06:04;98160.69;;;27.02;50.79
55604;BME280;41468;48.838;9.330;2022-07-29T09:08:34;98158.88;;;27.19;50.57
55604;BME280;41468;48.838;9.330;2022-07-29T09:11:04;98164.97;;;27.38;50.08
55604;BME280;41468;48.838;9.330;2022-07-29T09:13:34;98162.88;;;27.33;49.28
55604;BME280;41468;48.838;9.330;2022-07-29T09:16:04;98165.75;;;27.38;50.50
55604;BME280;41468;48.838;9.330;2022-07-29T09:18:37;98168.50;;;27.53;50.94
55604;BME280;41468;48.838;9.330;2022-07-29T09:21:11;98169.44;;;27.71;49.96
55604;BME280;41468;48.838;9.330;2022-07-29T09:24:01;98160.41;;;27.87;48.62
55604;BME280;41468;48.838;9.330;2022-07-29T09:26:32;98162.84;;;28.00;48.31
55604;BME280;41468;48.838;9.330;2022-07-29T09:29:08;98160.31;;;28.02;48.25
55604;BME280;41468;48.838;9.330;2022-07-29T09:31:40;98158.13;;;28.12;48.90
55604;BME280;41468;48.838;9.330;2022-07-29T09:34:12;98151.28;;;28.18;48.40
55604;BME280;41468;48.838;9.330;2022-07-29T09:36:46;98158.53;;;28.31;49.02
55604;BME280;41468;48.838;9.330;2022-07-29T09:39:27;98159.28;;;28.31;47.65
55604;BME280;41468;48.838;9.330;2022-07-29T09:41:58;98156.56;;;28.37;46.28
55604;BME280;41468;48.838;9.330;2022-07-29T09:44:41;98150.94;;;28.37;47.98
55604;BME280;41468;48.838;9.330;2022-07-29T09:47:12;98152.91;;;28.31;46.25
55604;BME280;41468;48.838;9.330;2022-07-29T09:49:53;98154.94;;;28.62;44.46
55604;BME280;41468;48.838;9.330;2022-07-29T09:52:28;98146.72;;;28.58;43.97
55604;BME280;41468;48.838;9.330;2022-07-29T09:55:05;98143.84;;;28.90;42.97
55604;BME280;41468;48.838;9.330;2022-07-29T09:57:39;98145.44;;;28.97;43.80
55604;BME280;41468;48.838;9.330;2022-07-29T10:00:11;98139.97;;;28.82;43.26
55604;BME280;41468;48.838;9.330;2022-07-29T10:02:43;98147.00;;;29.09;42.46
55604;BME280;41468;48.838;9.330;2022-07-29T10:05:18;98138.44;;;29.35;41.40
55604;BME280;41468;48.838;9.330;2022-07-29T10:07:52;98136.78;;;29.11;39.97
55604;BME280;41468;48.838;9.330;2022-07-29T10:10:25;98141.38;;;29.03;41.89
55604;BME280;41468;48.838;9.330;2022-07-29T10:12:57;98138.38;;;29.18;41.81
55604;BME280;41468;48.838;9.330;2022-07-29T10:15:37;98139.84;;;29.02;41.53
55604;BME280;41468;48.838;9.330;2022-07-29T10:18:10;98138.22;;;28.90;41.27
55604;BME280;41468;48.838;9.330;2022-07-29T10:20:41;98132.44;;;29.05;41.13
55604;BME280;41468;48.838;9.330;2022-07-29T10:23:14;98129.16;;;29.17;41.30
55604;BME280;41468;48.838;9.330;2022-07-29T10:25:45;98131.38;;;29.02;40.84
55604;BME280;41468;48.838;9.330;2022-07-29T10:28:15;98132.69;;;29.07;40.24
55604;BME280;41468;48.838;9.330;2022-07-29T10:30:45;98123.91;;;28.88;41.04
55604;BME280;41468;48.838;9.330;2022-07-29T10:33:24;98121.53;;;28.75;42.46
55604;BME280;41468;48.838;9.330;2022-07-29T10:36:07;98123.44;;;28.58;42.52
55604;BME280;41468;48.838;9.330;2022-07-29T10:38:52;98125.69;;;28.48;43.26
55604;BME280;41468;48.838;9.330;2022-07-29T10:41:39;98130.56;;;28.16;43.74
55604;BME280;41468;48.838;9.330;2022-07-29T10:44:16;98129.34;;;27.96;44.12
55604;BME280;41468;48.838;9.330;2022-07-29T10:46:50;98115.84;;;27.74;45.00
55604;BME280;41468;48.838;9.330;2022-07-29T10:49:21;98118.56;;;27.63;44.76
55604;BME280;41468;48.838;9.330;2022-07-29T10:52:01;98111.91;;;27.40;45.46
55604;BME280;41468;48.838;9.330;2022-07-29T10:54:45;98117.25;;;27.17;45.75
55604;BME280;41468;48.838;9.330;2022-07-29T10:57:22;98128.50;;;26.97;46.40
55604;BME280;41468;48.838;9.330;2022-07-29T11:00:27;98132.25;;;26.73;47.38
55604;BME280;41468;48.838;9.330;2022-07-29T11:02:58;98125.53;;;26.50;47.33
55604;BME280;41468;48.838;9.330;2022-07-29T11:05:52;98124.13;;;26.25;48.49
55604;BME280;41468;48.838;9.330;2022-07-29T11:08:25;98122.59;;;26.24;47.79
55604;BME280;41468;48.838;9.330;2022-07-29T11:14:00;98137.06;;;25.78;51.44
55604;BME280;41468;48.838;9.330;2022-07-29T11:17:03;98139.38;;;25.65;53.87
55604;BME280;41468;48.838;9.330;2022-07-29T11:19:34;98136.59;;;25.41;56.82
55604;BME280;41468;48.838;9.330;2022-07-29T11:22:32;98132.28;;;25.16;58.27
55604;BME280;41468;48.838;9.330;2022-07-29T11:25:14;98151.66;;;25.05;59.93
55604;BME280;41468;48.838;9.330;2022-07-29T11:28:13;98157.97;;;24.81;60.17
55604;BME280;41468;48.838;9.330;2022-07-29T11:30:53;98166.53;;;24.77;60.10
55604;BME280;41468;48.838;9.330;2022-07-29T11:33:28;98162.50;;;24.78;62.48
55604;BME280;41468;48.838;9.330;2022-07-29T11:36:18;98159.44;;;24.67;65.42
55604;BME280;41468;48.838;9.330;2022-07-29T11:39:25;98162.63;;;24.51;67.32
55604;BME280;41468;48.838;9.330;2022-07-29T11:45:09;98166.78;;;24.04;72.65
55604;BME280;41468;48.838;9.330;2022-07-29T11:48:03;98153.47;;;23.89;75.77
55604;BME280;41468;48.838;9.330;2022-07-29T11:50:54;98156.28;;;23.71;78.06
55604;BME280;41468;48.838;9.330;2022-07-29T11:53:24;98160.50;;;23.76;76.50
55604;BME280;41468;48.838;9.330;2022-07-29T11:55:59;98161.41;;;23.36;72.97
55604;BME280;41468;48.838;9.330;2022-07-29T11:58:29;98162.97;;;23.37;76.97
55604;BME280;41468;48.838;9.330;2022-07-29T12:01:00;98165.69;;;22.91;75.43
55604;BME280;41468;48.838;9.330;2022-07-29T12:03:33;98163.50;;;22.86;74.72
55604;BME280;41468;48.838;9.330;2022-07-29T12:06:11;98171.56;;;22.52;75.53
55604;BME280;41468;48.838;9.330;2022-07-29T12:08:46;98159.41;;;22.68;75.12
55604;BME280;41468;48.838;9.330;2022-07-29T12:11:17;98159.84;;;22.67;75.11
55604;BME280;41468;48.838;9.330;2022-07-29T12:13:49;98176.28;;;22.65;75.75
55604;BME280;41468;48.838;9.330;2022-07-29T12:16:19;98162.50;;;22.30;74.20
55604;BME280;41468;48.838;9.330;2022-07-29T12:19:00;98164.53;;;22.29;75.18
55604;BME280;41468;48.838;9.330;2022-07-29T12:21:43;98167.19;;;22.42;72.77
55604;BME280;41468;48.838;9.330;2022-07-29T12:24:25;98159.56;;;22.02;71.27
55604;BME280;41468;48.838;9.330;2022-07-29T12:26:56;98157.63;;;22.12;71.19
55604;BME280;41468;48.838;9.330;2022-07-29T12:29:28;98155.38;;;22.29;68.99
55604;BME280;41468;48.838;9.330;2022-07-29T12:32:02;98155.00;;;22.18;67.22
55604;BME280;41468;48.838;9.330;2022-07-29T12:34:43;98155.00;;;22.18;68.63
55604;BME280;41468;48.838;9.330;2022-07-29T12:37:13;98147.91;;;22.17;68.40
55604;BME280;41468;48.838;9.330;2022-07-29T12:39:43;98153.06;;;22.27;67.40
55604;BME280;41468;48.838;9.330;2022-07-29T12:42:14;98152.75;;;22.25;68.36
55604;BME280;41468;48.838;9.330;2022-07-29T12:44:46;98151.38;;;22.30;68.66
55604;BME280;41468;48.838;9.330;2022-07-29T12:47:18;98147.84;;;22.38;69.95
55604;BME280;41468;48.838;9.330;2022-07-29T12:50:08;98144.19;;;22.51;66.85
55604;BME280;41468;48.838;9.330;2022-07-29T12:52:38;98147.25;;;22.53;67.12
55604;BME280;41468;48.838;9.330;2022-07-29T12:55:07;98148.97;;;22.50;65.78
55604;BME280;41468;48.838;9.330;2022-07-29T12:57:45;98149.19;;;22.65;65.33
55604;BME280;41468;48.838;9.330;2022-07-29T13:00:22;98156.09;;;22.51;66.01
55604;BME280;41468;48.838;9.330;2022-07-29T13:02:55;98152.91;;;22.31;66.29
55604;BME280;41468;48.838;9.330;2022-07-29T13:05:42;98155.88;;;22.36;66.53
55604;BME280;41468;48.838;9.330;2022-07-29T13:08:16;98166.66;;;22.25;67.82
55604;BME280;41468;48.838;9.330;2022-07-29T13:10:48;98167.84;;;22.15;67.42
55604;BME280;41468;48.838;9.330;2022-07-29T13:13:18;98165.59;;;22.01;66.72
55604;BME280;41468;48.838;9.330;2022-07-29T13:16:05;98172.13;;;22.07;66.93
55604;BME280;41468;48.838;9.330;2022-07-29T13:18:35;98174.78;;;22.10;67.66
55604;BME280;41468;48.838;9.330;2022-07-29T13:21:17;98176.50;;;22.08;65.97
55604;BME280;41468;48.838;9.330;2022-07-29T13:23:46;98167.53;;;21.91;67.18
55604;BME280;41468;48.838;9.330;2022-07-29T13:26:16;98174.88;;;21.98;66.72
55604;BME280;41468;48.838;9.330;2022-07-29T13:28:46;98177.28;;;21.96;67.95
55604;BME280;41468;48.838;9.330;2022-07-29T13:31:16;98177.38;;;22.05;66.71
55604;BME280;41468;48.838;9.330;2022-07-29T13:33:46;98183.00;;;22.14;66.86
55604;BME280;41468;48.838;9.330;2022-07-29T13:36:18;98191.19;;;22.08;65.87
55604;BME280;41468;48.838;9.330;2022-07-29T13:38:48;98189.16;;;22.09;67.49
55604;BME280;41468;48.838;9.330;2022-07-29T13:41:17;98194.53;;;21.81;68.62